sensor_id;sensor_type;location;lat;lon;timestamp;temperature;humidity
3705;DHT22;1868;48.918;9.438;2023-04-15T00:02:17;4.90;97.40
3705;DHT22;1868;48.918;9.438;2023-04-15T00:04:48;4.90;97.40
3705;DHT22;1868;48.918;9.438;2023-04-15T00:07:17;4.90;97.40
3705;DHT22;1868;48.918;9.438;2023-04-15T00:09:47;4.80;97.40
3705;DHT22;1868;48.918;9.438;2023-04-15T00:12:16;4.80;97.40
3705;DHT22;1868;48.918;9.438;2023-04-15T00:14:45;4.80;97.40
3705;DHT22;1868;48.918;9.438;2023-04-15T00:17:16;4.80;97.40
3705;DHT22;1868;48.918;9.438;2023-04-15T00:19:45;4.80;97.40
3705;DHT22;1868;48.918;9.438;2023-04-15T00:22:14;4.70;97.40
3705;DHT22;1868;48.918;9.438;2023-04-15T00:24:45;4.70;97.40
3705;DHT22;1868;48.918;9.438;2023-04-15T00:27:14;4.70;97.40
3705;DHT22;1868;48.918;9.438;2023-04-15T00:29:43;4.70;97.40
3705;DHT22;1868;48.918;9.438;2023-04-15T00:32:13;4.70;97.40
3705;DHT22;1868;48.918;9.438;2023-04-15T00:34:44;4.70;97.40
3705;DHT22;1868;48.918;9.438;2023-04-15T00:37:14;4.70;97.40
3705;DHT22;1868;48.918;9.438;2023-04-15T00:39:42;4.60;97.40
3705;DHT22;1868;48.918;9.438;2023-04-15T00:42:12;4.60;97.40
3705;DHT22;1868;48.918;9.438;2023-04-15T00:44:41;4.60;97.40
3705;DHT22;1868;48.918;9.438;2023-04-15T00:47:11;4.60;97.40
3705;DHT22;1868;48.918;9.438;2023-04-15T00:49:44;4.60;97.40
3705;DHT22;1868;48.918;9.438;2023-04-15T00:52:15;4.50;97.40
3705;DHT22;1868;48.918;9.438;2023-04-15T00:54:44;4.50;97.40
3705;DHT22;1868;48.918;9.438;2023-04-15T00:57:15;4.50;97.40
3705;DHT22;1868;48.918;9.438;2023-04-15T00:59:44;4.50;97.40
3705;DHT22;1868;48.918;9.438;2023-04-15T01:02:15;4.40;97.40
3705;DHT22;1868;48.918;9.438;2023-04-15T01:04:46;4.40;97.40
3705;DHT22;1868;48.918;9.438;2023-04-15T01:07:15;4.40;97.40
3705;DHT22;1868;48.918;9.438;2023-04-15T01:09:45;4.40;97.40
3705;DHT22;1868;48.918;9.438;2023-04-15T01:12:16;4.30;97.40
3705;DHT22;1868;48.918;9.438;2023-04-15T01:14:49;4.30;97.40
3705;DHT22;1868;48.918;9.438;2023-04-15T01:17:20;4.30;97.40
3705;DHT22;1868;48.918;9.438;2023-04-15T01:19:51;4.30;97.40
3705;DHT22;1868;48.918;9.438;2023-04-15T01:22:22;4.20;97.40
3705;DHT22;1868;48.918;9.438;2023-04-15T01:24:55;4.20;97.40
3705;DHT22;1868;48.918;9.438;2023-04-15T01:27:31;4.10;97.40
3705;DHT22;1868;48.918;9.438;2023-04-15T01:30:01;4.10;97.40
3705;DHT22;1868;48.918;9.438;2023-04-15T01:32:32;4.10;97.40
3705;DHT22;1868;48.918;9.438;2023-04-15T01:35:01;4.00;97.40
3705;DHT22;1868;48.918;9.438;2023-04-15T01:37:32;4.00;97.40
3705;DHT22;1868;48.918;9.438;2023-04-15T01:40:03;4.00;97.40
3705;DHT22;1868;48.918;9.438;2023-04-15T01:42:36;3.90;97.40
3705;DHT22;1868;48.918;9.438;2023-04-15T01:45:08;3.90;97.40
3705;DHT22;1868;48.918;9.438;2023-04-15T01:47:38;3.90;97.40
3705;DHT22;1868;48.918;9.438;2023-04-15T01:50:10;3.80;97.40
3705;DHT22;1868;48.918;9.438;2023-04-15T01:52:42;3.80;97.40
3705;DHT22;1868;48.918;9.438;2023-04-15T01:55:11;3.80;97.40
3705;DHT22;1868;48.918;9.438;2023-04-15T01:57:42;3.80;97.40
3705;DHT22;1868;48.918;9.438;2023-04-15T02:00:11;3.80;97.40
3705;DHT22;1868;48.918;9.438;2023-04-15T02:02:41;3.80;97.40
3705;DHT22;1868;48.918;9.438;2023-04-15T02:05:11;3.70;97.40
3705;DHT22;1868;48.918;9.438;2023-04-15T02:07:40;3.70;97.40
3705;DHT22;1868;48.918;9.438;2023-04-15T02:10:09;3.70;97.40
3705;DHT22;1868;48.918;9.438;2023-04-15T02:12:42;3.60;97.40
3705;DHT22;1868;48.918;9.438;2023-04-15T02:15:12;3.60;97.40
3705;DHT22;1868;48.918;9.438;2023-04-15T02:17:43;3.60;97.40
3705;DHT22;1868;48.918;9.438;2023-04-15T02:20:18;3.60;97.40
3705;DHT22;1868;48.918;9.438;2023-04-15T02:22:49;3.60;97.40
3705;DHT22;1868;48.918;9.438;2023-04-15T02:25:19;3.50;97.40
3705;DHT22;1868;48.918;9.438;2023-04-15T02:27:51;3.50;97.40
3705;DHT22;1868;48.918;9.438;2023-04-15T02:30:23;3.50;97.40
3705;DHT22;1868;48.918;9.438;2023-04-15T02:33:01;3.40;97.40
3705;DHT22;1868;48.918;9.438;2023-04-15T02:35:31;3.40;97.40
3705;DHT22;1868;48.918;9.438;2023-04-15T02:38:01;3.30;97.40
3705;DHT22;1868;48.918;9.438;2023-04-15T02:40:31;3.30;97.40
3705;DHT22;1868;48.918;9.438;2023-04-15T02:43:03;3.30;97.40
3705;DHT22;1868;48.918;9.438;2023-04-15T02:45:34;3.20;97.40
3705;DHT22;1868;48.918;9.438;2023-04-15T02:48:04;3.20;97.40
3705;DHT22;1868;48.918;9.438;2023-04-15T02:50:40;3.20;97.40
3705;DHT22;1868;48.918;9.438;2023-04-15T02:53:13;3.20;97.40
3705;DHT22;1868;48.918;9.438;2023-04-15T02:55:42;3.10;97.40
3705;DHT22;1868;48.918;9.438;2023-04-15T02:58:13;3.10;97.40
3705;DHT22;1868;48.918;9.438;2023-04-15T03:00:42;3.10;97.40
3705;DHT22;1868;48.918;9.438;2023-04-15T03:03:14;3.10;97.40
3705;DHT22;1868;48.918;9.438;2023-04-15T03:05:43;3.20;97.40
3705;DHT22;1868;48.918;9.438;2023-04-15T03:08:13;3.20;97.40
3705;DHT22;1868;48.918;9.438;2023-04-15T03:10:46;3.20;97.40
3705;DHT22;1868;48.918;9.438;2023-04-15T03:13:19;3.20;97.40
3705;DHT22;1868;48.918;9.438;2023-04-15T03:15:49;3.20;97.40
3705;DHT22;1868;48.918;9.438;2023-04-15T03:18:21;3.30;97.40
3705;DHT22;1868;48.918;9.438;2023-04-15T03:20:50;3.30;97.40
3705;DHT22;1868;48.918;9.438;2023-04-15T03:23:22;3.30;97.40
3705;DHT22;1868;48.918;9.438;2023-04-15T03:25:51;3.30;97.40
3705;DHT22;1868;48.918;9.438;2023-04-15T03:28:24;3.40;97.40
3705;DHT22;1868;48.918;9.438;2023-04-15T03:30:55;3.40;97.40
3705;DHT22;1868;48.918;9.438;2023-04-15T03:33:25;3.40;97.40
3705;DHT22;1868;48.918;9.438;2023-04-15T03:35:55;3.40;97.40
3705;DHT22;1868;48.918;9.438;2023-04-15T03:38:26;3.40;97.40
3705;DHT22;1868;48.918;9.438;2023-04-15T03:40:56;3.50;97.40
3705;DHT22;1868;48.918;9.438;2023-04-15T03:43:26;3.50;97.40
3705;DHT22;1868;48.918;9.438;2023-04-15T03:45:55;3.50;97.40
3705;DHT22;1868;48.918;9.438;2023-04-15T03:48:27;3.50;97.40
3705;DHT22;1868;48.918;9.438;2023-04-15T03:50:56;3.50;97.40
3705;DHT22;1868;48.918;9.438;2023-04-15T03:53:29;3.50;97.40
3705;DHT22;1868;48.918;9.438;2023-04-15T03:56:00;3.40;97.40
3705;DHT22;1868;48.918;9.438;2023-04-15T03:58:33;3.40;97.40
3705;DHT22;1868;48.918;9.438;2023-04-15T04:01:04;3.40;97.40
3705;DHT22;1868;48.918;9.438;2023-04-15T04:03:35;3.40;97.40
3705;DHT22;1868;48.918;9.438;2023-04-15T04:06:05;3.40;97.40
3705;DHT22;1868;48.918;9.438;2023-04-15T04:08:34;3.40;97.40
3705;DHT22;1868;48.918;9.438;2023-04-15T04:11:04;3.40;97.40
3705;DHT22;1868;48.918;9.438;2023-04-15T04:13:37;3.40;97.40
3705;DHT22;1868;48.918;9.438;2023-04-15T04:16:08;3.30;97.40
3705;DHT22;1868;48.918;9.438;2023-04-15T04:18:37;3.30;97.40
3705;DHT22;1868;48.918;9.438;2023-04-15T04:21:07;3.30;97.40
3705;DHT22;1868;48.918;9.438;2023-04-15T04:23:36;3.20;97.40
3705;DHT22;1868;48.918;9.438;2023-04-15T04:26:07;3.20;97.40
3705;DHT22;1868;48.918;9.438;2023-04-15T04:28:38;3.10;97.40
3705;DHT22;1868;48.918;9.438;2023-04-15T04:31:10;3.10;97.40
3705;DHT22;1868;48.918;9.438;2023-04-15T04:33:40;3.00;97.40
3705;DHT22;1868;48.918;9.438;2023-04-15T04:36:10;3.00;97.40
3705;DHT22;1868;48.918;9.438;2023-04-15T04:38:40;2.90;97.40
3705;DHT22;1868;48.918;9.438;2023-04-15T04:41:16;2.90;97.40
3705;DHT22;1868;48.918;9.438;2023-04-15T04:43:48;2.80;97.40
3705;DHT22;1868;48.918;9.438;2023-04-15T04:46:16;2.80;97.40
3705;DHT22;1868;48.918;9.438;2023-04-15T04:48:45;2.80;97.40
3705;DHT22;1868;48.918;9.438;2023-04-15T04:51:14;2.80;97.40
3705;DHT22;1868;48.918;9.438;2023-04-15T04:53:43;2.80;97.40
3705;DHT22;1868;48.918;9.438;2023-04-15T04:56:16;2.80;97.40
3705;DHT22;1868;48.918;9.438;2023-04-15T04:58:44;2.80;97.40
3705;DHT22;1868;48.918;9.438;2023-04-15T05:01:15;2.80;97.40
3705;DHT22;1868;48.918;9.438;2023-04-15T05:03:43;2.80;97.40
3705;DHT22;1868;48.918;9.438;2023-04-15T05:06:13;2.80;97.40
3705;DHT22;1868;48.918;9.438;2023-04-15T05:08:43;2.80;97.40
3705;DHT22;1868;48.918;9.438;2023-04-15T05:11:14;2.80;97.40
3705;DHT22;1868;48.918;9.438;2023-04-15T05:13:47;2.90;97.40
3705;DHT22;1868;48.918;9.438;2023-04-15T05:16:17;2.90;97.40
3705;DHT22;1868;48.918;9.438;2023-04-15T05:18:48;2.90;97.40
3705;DHT22;1868;48.918;9.438;2023-04-15T05:21:21;2.90;97.40
3705;DHT22;1868;48.918;9.438;2023-04-15T05:23:49;2.90;97.40
3705;DHT22;1868;48.918;9.438;2023-04-15T05:26:21;2.90;97.40
3705;DHT22;1868;48.918;9.438;2023-04-15T05:28:52;2.90;97.40
3705;DHT22;1868;48.918;9.438;2023-04-15T05:31:21;2.90;97.40
3705;DHT22;1868;48.918;9.438;2023-04-15T05:33:50;2.90;97.40
3705;DHT22;1868;48.918;9.438;2023-04-15T05:36:19;3.00;97.40
3705;DHT22;1868;48.918;9.438;2023-04-15T05:38:48;3.00;97.40
3705;DHT22;1868;48.918;9.438;2023-04-15T05:41:21;3.00;97.40
3705;DHT22;1868;48.918;9.438;2023-04-15T05:43:54;3.00;97.40
3705;DHT22;1868;48.918;9.438;2023-04-15T05:46:25;3.10;97.40
3705;DHT22;1868;48.918;9.438;2023-04-15T05:48:55;3.10;97.40
3705;DHT22;1868;48.918;9.438;2023-04-15T05:51:30;3.20;97.40
3705;DHT22;1868;48.918;9.438;2023-04-15T05:53:59;3.20;97.40
3705;DHT22;1868;48.918;9.438;2023-04-15T05:56:30;3.30;97.40
3705;DHT22;1868;48.918;9.438;2023-04-15T05:59:01;3.50;97.40
3705;DHT22;1868;48.918;9.438;2023-04-15T06:01:32;3.60;97.40
3705;DHT22;1868;48.918;9.438;2023-04-15T06:04:04;3.90;97.40
3705;DHT22;1868;48.918;9.438;2023-04-15T06:06:33;4.00;97.40
3705;DHT22;1868;48.918;9.438;2023-04-15T06:09:04;4.20;97.40
3705;DHT22;1868;48.918;9.438;2023-04-15T06:11:34;4.40;97.40
3705;DHT22;1868;48.918;9.438;2023-04-15T06:14:05;4.60;97.40
3705;DHT22;1868;48.918;9.438;2023-04-15T06:16:34;4.80;97.40
3705;DHT22;1868;48.918;9.438;2023-04-15T06:19:04;5.10;97.40
3705;DHT22;1868;48.918;9.438;2023-04-15T06:21:35;5.40;97.40
3705;DHT22;1868;48.918;9.438;2023-04-15T06:24:04;5.60;97.40
3705;DHT22;1868;48.918;9.438;2023-04-15T06:26:33;5.90;97.40
3705;DHT22;1868;48.918;9.438;2023-04-15T06:29:04;6.20;97.40
3705;DHT22;1868;48.918;9.438;2023-04-15T06:31:33;6.50;97.40
3705;DHT22;1868;48.918;9.438;2023-04-15T06:34:03;6.80;97.40
3705;DHT22;1868;48.918;9.438;2023-04-15T06:36:34;7.10;97.40
3705;DHT22;1868;48.918;9.438;2023-04-15T06:39:02;7.30;97.40
3705;DHT22;1868;48.918;9.438;2023-04-15T06:41:31;7.60;97.40
3705;DHT22;1868;48.918;9.438;2023-04-15T06:44:01;7.90;97.40
3705;DHT22;1868;48.918;9.438;2023-04-15T06:46:33;8.10;97.40
3705;DHT22;1868;48.918;9.438;2023-04-15T06:49:04;8.30;97.40
3705;DHT22;1868;48.918;9.438;2023-04-15T06:51:33;8.40;97.40
3705;DHT22;1868;48.918;9.438;2023-04-15T06:54:04;8.50;97.40
3705;DHT22;1868;48.918;9.438;2023-04-15T06:56:32;8.70;97.40
3705;DHT22;1868;48.918;9.438;2023-04-15T06:59:01;8.70;97.40
3705;DHT22;1868;48.918;9.438;2023-04-15T07:01:33;8.80;97.40
3705;DHT22;1868;48.918;9.438;2023-04-15T07:04:02;8.90;97.40
3705;DHT22;1868;48.918;9.438;2023-04-15T07:06:33;9.00;97.40
3705;DHT22;1868;48.918;9.438;2023-04-15T07:09:02;9.10;97.40
3705;DHT22;1868;48.918;9.438;2023-04-15T07:11:32;9.20;97.40
3705;DHT22;1868;48.918;9.438;2023-04-15T07:14:02;9.40;97.40
3705;DHT22;1868;48.918;9.438;2023-04-15T07:16:31;9.50;97.40
3705;DHT22;1868;48.918;9.438;2023-04-15T07:19:01;9.70;97.40
3705;DHT22;1868;48.918;9.438;2023-04-15T07:21:30;9.80;97.40
3705;DHT22;1868;48.918;9.438;2023-04-15T07:24:02;10.00;97.40
3705;DHT22;1868;48.918;9.438;2023-04-15T07:26:31;10.30;97.40
3705;DHT22;1868;48.918;9.438;2023-04-15T07:29:00;10.80;97.40
3705;DHT22;1868;48.918;9.438;2023-04-15T07:31:31;11.30;97.40
3705;DHT22;1868;48.918;9.438;2023-04-15T07:34:05;11.80;97.40
3705;DHT22;1868;48.918;9.438;2023-04-15T07:36:37;12.30;97.40
3705;DHT22;1868;48.918;9.438;2023-04-15T07:39:06;12.80;97.40
3705;DHT22;1868;48.918;9.438;2023-04-15T07:41:36;13.40;97.40
3705;DHT22;1868;48.918;9.438;2023-04-15T07:44:06;13.80;97.40
3705;DHT22;1868;48.918;9.438;2023-04-15T07:46:35;14.20;96.90
3705;DHT22;1868;48.918;9.438;2023-04-15T07:49:06;14.40;94.80
3705;DHT22;1868;48.918;9.438;2023-04-15T07:51:37;14.30;95.50
3705;DHT22;1868;48.918;9.438;2023-04-15T07:54:05;14.20;95.20
3705;DHT22;1868;48.918;9.438;2023-04-15T07:56:34;14.20;94.60
3705;DHT22;1868;48.918;9.438;2023-04-15T07:59:03;14.60;92.50
3705;DHT22;1868;48.918;9.438;2023-04-15T08:01:32;15.40;92.40
3705;DHT22;1868;48.918;9.438;2023-04-15T08:04:01;16.20;85.50
3705;DHT22;1868;48.918;9.438;2023-04-15T08:06:31;16.80;83.80
3705;DHT22;1868;48.918;9.438;2023-04-15T08:09:00;17.40;84.50
3705;DHT22;1868;48.918;9.438;2023-04-15T08:11:31;17.90;78.60
3705;DHT22;1868;48.918;9.438;2023-04-15T08:14:02;17.60;78.00
3705;DHT22;1868;48.918;9.438;2023-04-15T08:16:32;17.50;75.60
3705;DHT22;1868;48.918;9.438;2023-04-15T08:19:01;17.40;76.90
3705;DHT22;1868;48.918;9.438;2023-04-15T08:21:31;17.80;76.30
3705;DHT22;1868;48.918;9.438;2023-04-15T08:24:00;18.30;74.50
3705;DHT22;1868;48.918;9.438;2023-04-15T08:26:29;18.60;75.90
3705;DHT22;1868;48.918;9.438;2023-04-15T08:28:59;18.70;72.80
3705;DHT22;1868;48.918;9.438;2023-04-15T08:31:28;18.40;74.60
3705;DHT22;1868;48.918;9.438;2023-04-15T08:33:57;18.10;75.40
3705;DHT22;1868;48.918;9.438;2023-04-15T08:36:27;17.90;74.30
3705;DHT22;1868;48.918;9.438;2023-04-15T08:38:58;17.70;76.70
3705;DHT22;1868;48.918;9.438;2023-04-15T08:41:33;17.90;77.80
3705;DHT22;1868;48.918;9.438;2023-04-15T08:44:08;18.30;74.10
3705;DHT22;1868;48.918;9.438;2023-04-15T08:46:38;18.60;75.40
3705;DHT22;1868;48.918;9.438;2023-04-15T08:49:09;18.60;74.50
3705;DHT22;1868;48.918;9.438;2023-04-15T08:51:39;18.70;75.00
3705;DHT22;1868;48.918;9.438;2023-04-15T08:54:11;18.90;75.60
3705;DHT22;1868;48.918;9.438;2023-04-15T08:56:40;18.70;75.00
3705;DHT22;1868;48.918;9.438;2023-04-15T08:59:09;18.30;72.80
3705;DHT22;1868;48.918;9.438;2023-04-15T09:01:39;18.30;73.20
3705;DHT22;1868;48.918;9.438;2023-04-15T09:04:09;18.30;71.80
3705;DHT22;1868;48.918;9.438;2023-04-15T09:06:40;18.20;74.10
3705;DHT22;1868;48.918;9.438;2023-04-15T09:09:11;18.00;71.80
3705;DHT22;1868;48.918;9.438;2023-04-15T09:11:42;18.50;73.00
3705;DHT22;1868;48.918;9.438;2023-04-15T09:14:11;19.00;70.70
3705;DHT22;1868;48.918;9.438;2023-04-15T09:16:58;19.00;68.10
3705;DHT22;1868;48.918;9.438;2023-04-15T09:19:31;18.90;69.20
3705;DHT22;1868;48.918;9.438;2023-04-15T09:22:01;18.60;70.20
3705;DHT22;1868;48.918;9.438;2023-04-15T09:24:37;18.90;70.20
3705;DHT22;1868;48.918;9.438;2023-04-15T09:27:09;19.30;69.20
3705;DHT22;1868;48.918;9.438;2023-04-15T09:29:40;19.90;69.40
3705;DHT22;1868;48.918;9.438;2023-04-15T09:32:10;20.40;67.00
3705;DHT22;1868;48.918;9.438;2023-04-15T09:34:42;21.00;62.90
3705;DHT22;1868;48.918;9.438;2023-04-15T09:37:11;22.10;60.70
3705;DHT22;1868;48.918;9.438;2023-04-15T09:40:03;22.40;57.50
3705;DHT22;1868;48.918;9.438;2023-04-15T09:42:33;22.50;57.80
3705;DHT22;1868;48.918;9.438;2023-04-15T09:45:12;22.70;55.50
3705;DHT22;1868;48.918;9.438;2023-04-15T09:47:41;23.30;54.60
3705;DHT22;1868;48.918;9.438;2023-04-15T09:50:10;24.00;53.90
3705;DHT22;1868;48.918;9.438;2023-04-15T09:52:40;24.50;49.30
3705;DHT22;1868;48.918;9.438;2023-04-15T09:55:13;24.60;49.30
3705;DHT22;1868;48.918;9.438;2023-04-15T09:57:43;24.70;47.90
3705;DHT22;1868;48.918;9.438;2023-04-15T10:00:14;24.40;48.80
3705;DHT22;1868;48.918;9.438;2023-04-15T10:02:43;23.90;47.60
3705;DHT22;1868;48.918;9.438;2023-04-15T10:05:15;23.80;51.00
3705;DHT22;1868;48.918;9.438;2023-04-15T10:07:44;23.60;49.10
3705;DHT22;1868;48.918;9.438;2023-04-15T10:10:15;23.70;49.40
3705;DHT22;1868;48.918;9.438;2023-04-15T10:12:44;23.70;49.10
3705;DHT22;1868;48.918;9.438;2023-04-15T10:15:15;23.50;50.80
3705;DHT22;1868;48.918;9.438;2023-04-15T10:17:46;23.40;49.70
3705;DHT22;1868;48.918;9.438;2023-04-15T10:20:17;23.40;49.40
3705;DHT22;1868;48.918;9.438;2023-04-15T10:22:47;22.90;49.40
3705;DHT22;1868;48.918;9.438;2023-04-15T10:25:19;22.80;51.30
3705;DHT22;1868;48.918;9.438;2023-04-15T10:27:49;22.90;50.80
3705;DHT22;1868;48.918;9.438;2023-04-15T10:30:19;22.80;51.10
3705;DHT22;1868;48.918;9.438;2023-04-15T10:32:48;22.60;51.40
3705;DHT22;1868;48.918;9.438;2023-04-15T10:35:17;22.30;52.20
3705;DHT22;1868;48.918;9.438;2023-04-15T10:37:48;22.20;52.00
3705;DHT22;1868;48.918;9.438;2023-04-15T10:40:27;21.90;53.10
3705;DHT22;1868;48.918;9.438;2023-04-15T10:42:58;21.50;51.60
3705;DHT22;1868;48.918;9.438;2023-04-15T10:45:31;21.00;52.50
3705;DHT22;1868;48.918;9.438;2023-04-15T10:48:03;21.10;53.70
3705;DHT22;1868;48.918;9.438;2023-04-15T10:50:37;21.10;53.20
3705;DHT22;1868;48.918;9.438;2023-04-15T10:53:09;21.20;52.50
3705;DHT22;1868;48.918;9.438;2023-04-15T10:55:39;21.30;53.20
3705;DHT22;1868;48.918;9.438;2023-04-15T10:58:09;21.70;54.30
3705;DHT22;1868;48.918;9.438;2023-04-15T11:00:38;21.80;53.20
3705;DHT22;1868;48.918;9.438;2023-04-15T11:03:08;21.70;52.30
3705;DHT22;1868;48.918;9.438;2023-04-15T11:05:51;21.20;54.20
3705;DHT22;1868;48.918;9.438;2023-04-15T11:08:54;20.60;56.10
3705;DHT22;1868;48.918;9.438;2023-04-15T11:14:39;19.90;55.10
3705;DHT22;1868;48.918;9.438;2023-04-15T11:17:09;19.70;56.90
3705;DHT22;1868;48.918;9.438;2023-04-15T11:19:40;19.40;58.10
3705;DHT22;1868;48.918;9.438;2023-04-15T11:22:09;19.10;63.10
3705;DHT22;1868;48.918;9.438;2023-04-15T11:24:46;19.00;60.50
3705;DHT22;1868;48.918;9.438;2023-04-15T11:27:22;18.80;63.10
3705;DHT22;1868;48.918;9.438;2023-04-15T11:29:51;18.70;62.70
3705;DHT22;1868;48.918;9.438;2023-04-15T11:32:21;18.60;64.40
3705;DHT22;1868;48.918;9.438;2023-04-15T11:34:51;18.50;65.00
3705;DHT22;1868;48.918;9.438;2023-04-15T11:37:27;18.50;64.60
3705;DHT22;1868;48.918;9.438;2023-04-15T11:39:58;18.20;65.10
3705;DHT22;1868;48.918;9.438;2023-04-15T11:42:28;18.10;64.60
3705;DHT22;1868;48.918;9.438;2023-04-15T11:45:14;18.00;66.10
3705;DHT22;1868;48.918;9.438;2023-04-15T11:47:43;17.60;67.40
3705;DHT22;1868;48.918;9.438;2023-04-15T11:50:16;17.00;71.80
3705;DHT22;1868;48.918;9.438;2023-04-15T11:52:52;16.90;71.30
3705;DHT22;1868;48.918;9.438;2023-04-15T11:55:22;17.00;71.70
3705;DHT22;1868;48.918;9.438;2023-04-15T11:58:05;16.80;74.50
3705;DHT22;1868;48.918;9.438;2023-04-15T12:00:36;16.60;71.70
3705;DHT22;1868;48.918;9.438;2023-04-15T12:03:22;16.60;70.20
3705;DHT22;1868;48.918;9.438;2023-04-15T12:06:05;16.50;72.20
3705;DHT22;1868;48.918;9.438;2023-04-15T12:09:03;16.40;67.60
3705;DHT22;1868;48.918;9.438;2023-04-15T12:11:39;16.40;70.00
3705;DHT22;1868;48.918;9.438;2023-04-15T12:14:18;16.40;69.40
3705;DHT22;1868;48.918;9.438;2023-04-15T12:16:52;16.50;68.50
3705;DHT22;1868;48.918;9.438;2023-04-15T12:19:27;16.50;68.70
3705;DHT22;1868;48.918;9.438;2023-04-15T12:22:00;16.50;71.10
3705;DHT22;1868;48.918;9.438;2023-04-15T12:24:31;16.40;69.10
3705;DHT22;1868;48.918;9.438;2023-04-15T12:27:03;16.40;68.90
3705;DHT22;1868;48.918;9.438;2023-04-15T12:29:35;16.20;71.50
3705;DHT22;1868;48.918;9.438;2023-04-15T12:32:07;16.10;73.20
3705;DHT22;1868;48.918;9.438;2023-04-15T12:34:38;15.90;75.00
3705;DHT22;1868;48.918;9.438;2023-04-15T12:37:09;15.90;75.80
3705;DHT22;1868;48.918;9.438;2023-04-15T12:39:43;15.90;75.00
3705;DHT22;1868;48.918;9.438;2023-04-15T12:42:15;15.70;67.90
3705;DHT22;1868;48.918;9.438;2023-04-15T12:44:45;15.60;64.60
3705;DHT22;1868;48.918;9.438;2023-04-15T12:47:18;15.40;59.80
3705;DHT22;1868;48.918;9.438;2023-04-15T12:49:47;15.30;58.10
3705;DHT22;1868;48.918;9.438;2023-04-15T12:52:27;15.00;57.50
3705;DHT22;1868;48.918;9.438;2023-04-15T12:54:58;14.90;61.20
3705;DHT22;1868;48.918;9.438;2023-04-15T12:57:28;14.80;61.60
3705;DHT22;1868;48.918;9.438;2023-04-15T12:59:58;14.70;63.50
3705;DHT22;1868;48.918;9.438;2023-04-15T13:02:27;14.60;63.30
3705;DHT22;1868;48.918;9.438;2023-04-15T13:04:56;14.50;62.70
3705;DHT22;1868;48.918;9.438;2023-04-15T13:07:25;14.60;64.60
3705;DHT22;1868;48.918;9.438;2023-04-15T13:09:54;14.50;62.90
3705;DHT22;1868;48.918;9.438;2023-04-15T13:12:22;14.40;64.20
3705;DHT22;1868;48.918;9.438;2023-04-15T13:14:52;14.40;63.70
3705;DHT22;1868;48.918;9.438;2023-04-15T13:17:23;14.40;65.30
3705;DHT22;1868;48.918;9.438;2023-04-15T13:19:52;14.40;65.10
3705;DHT22;1868;48.918;9.438;2023-04-15T13:22:20;14.50;66.60
3705;DHT22;1868;48.918;9.438;2023-04-15T13:24:49;14.50;66.10
3705;DHT22;1868;48.918;9.438;2023-04-15T13:27:20;14.40;65.90
3705;DHT22;1868;48.918;9.438;2023-04-15T13:29:49;14.40;64.80
3705;DHT22;1868;48.918;9.438;2023-04-15T13:32:18;14.30;64.80
3705;DHT22;1868;48.918;9.438;2023-04-15T13:34:49;14.30;65.90
3705;DHT22;1868;48.918;9.438;2023-04-15T13:37:18;14.20;65.50
3705;DHT22;1868;48.918;9.438;2023-04-15T13:39:47;14.20;64.80
3705;DHT22;1868;48.918;9.438;2023-04-15T13:42:17;14.10;63.80
3705;DHT22;1868;48.918;9.438;2023-04-15T13:44:45;14.00;65.10
3705;DHT22;1868;48.918;9.438;2023-04-15T13:47:14;14.00;65.70
3705;DHT22;1868;48.918;9.438;2023-04-15T13:49:43;14.00;65.10
3705;DHT22;1868;48.918;9.438;2023-04-15T13:52:19;13.90;65.00
3705;DHT22;1868;48.918;9.438;2023-04-15T13:54:50;13.90;66.60
3705;DHT22;1868;48.918;9.438;2023-04-15T13:57:38;13.90;65.50
3705;DHT22;1868;48.918;9.438;2023-04-15T14:00:09;13.80;65.00
3705;DHT22;1868;48.918;9.438;2023-04-15T14:02:39;13.80;64.60
3705;DHT22;1868;48.918;9.438;2023-04-15T14:05:09;13.80;66.60
3705;DHT22;1868;48.918;9.438;2023-04-15T14:07:40;13.70;66.60
3705;DHT22;1868;48.918;9.438;2023-04-15T14:10:10;13.60;68.30
3705;DHT22;1868;48.918;9.438;2023-04-15T14:12:39;13.50;69.40
3705;DHT22;1868;48.918;9.438;2023-04-15T14:15:09;13.30;71.30
3705;DHT22;1868;48.918;9.438;2023-04-15T14:17:38;13.30;72.40
3705;DHT22;1868;48.918;9.438;2023-04-15T14:20:09;13.20;73.20
3705;DHT22;1868;48.918;9.438;2023-04-15T14:22:50;13.20;73.70
3705;DHT22;1868;48.918;9.438;2023-04-15T14:25:20;13.20;74.30
3705;DHT22;1868;48.918;9.438;2023-04-15T14:27:59;13.00;74.80
3705;DHT22;1868;48.918;9.438;2023-04-15T14:30:30;13.00;76.90
3705;DHT22;1868;48.918;9.438;2023-04-15T14:32:58;12.90;76.50
3705;DHT22;1868;48.918;9.438;2023-04-15T14:35:27;12.90;77.40
3705;DHT22;1868;48.918;9.438;2023-04-15T14:37:58;12.90;77.80
3705;DHT22;1868;48.918;9.438;2023-04-15T14:40:27;12.90;78.40
3705;DHT22;1868;48.918;9.438;2023-04-15T14:42:56;12.80;79.50
3705;DHT22;1868;48.918;9.438;2023-04-15T14:45:25;12.80;79.70
3705;DHT22;1868;48.918;9.438;2023-04-15T14:47:54;12.80;80.40
3705;DHT22;1868;48.918;9.438;2023-04-15T14:50:26;12.70;80.80
3705;DHT22;1868;48.918;9.438;2023-04-15T14:52:55;12.60;81.20
3705;DHT22;1868;48.918;9.438;2023-04-15T14:55:27;12.50;83.60
3705;DHT22;1868;48.918;9.438;2023-04-15T14:57:56;12.60;83.00
3705;DHT22;1868;48.918;9.438;2023-04-15T15:00:25;12.60;82.10
3705;DHT22;1868;48.918;9.438;2023-04-15T15:02:54;12.60;83.20
3705;DHT22;1868;48.918;9.438;2023-04-15T15:05:23;12.70;84.10
3705;DHT22;1868;48.918;9.438;2023-04-15T15:07:52;12.70;84.30
3705;DHT22;1868;48.918;9.438;2023-04-15T15:10:22;12.60;86.00
3705;DHT22;1868;48.918;9.438;2023-04-15T15:13:12;12.60;84.90
3705;DHT22;1868;48.918;9.438;2023-04-15T15:15:45;12.50;84.90
3705;DHT22;1868;48.918;9.438;2023-04-15T15:18:19;12.40;86.60
3705;DHT22;1868;48.918;9.438;2023-04-15T15:20:49;12.40;87.10
3705;DHT22;1868;48.918;9.438;2023-04-15T15:23:18;12.50;88.80
3705;DHT22;1868;48.918;9.438;2023-04-15T15:25:49;12.30;89.20
3705;DHT22;1868;48.918;9.438;2023-04-15T15:28:22;12.20;90.30
3705;DHT22;1868;48.918;9.438;2023-04-15T15:30:51;12.20;90.90
3705;DHT22;1868;48.918;9.438;2023-04-15T15:33:20;12.30;89.90
3705;DHT22;1868;48.918;9.438;2023-04-15T15:35:50;12.30;90.20
3705;DHT22;1868;48.918;9.438;2023-04-15T15:38:21;12.30;91.50
3705;DHT22;1868;48.918;9.438;2023-04-15T15:40:55;12.20;93.60
3705;DHT22;1868;48.918;9.438;2023-04-15T15:43:25;12.10;95.30
3705;DHT22;1868;48.918;9.438;2023-04-15T15:45:54;12.00;97.40
3705;DHT22;1868;48.918;9.438;2023-04-15T15:48:26;11.80;97.40
3705;DHT22;1868;48.918;9.438;2023-04-15T15:50:54;11.80;97.40
3705;DHT22;1868;48.918;9.438;2023-04-15T15:53:23;11.60;97.40
3705;DHT22;1868;48.918;9.438;2023-04-15T15:55:52;11.40;97.40
3705;DHT22;1868;48.918;9.438;2023-04-15T15:58:21;11.30;97.40
3705;DHT22;1868;48.918;9.438;2023-04-15T16:00:56;11.20;97.40
3705;DHT22;1868;48.918;9.438;2023-04-15T16:03:28;11.20;97.40
3705;DHT22;1868;48.918;9.438;2023-04-15T16:05:58;11.10;97.40
3705;DHT22;1868;48.918;9.438;2023-04-15T16:08:27;11.00;97.40
3705;DHT22;1868;48.918;9.438;2023-04-15T16:10:56;11.00;97.40
3705;DHT22;1868;48.918;9.438;2023-04-15T16:13:24;10.90;97.40
3705;DHT22;1868;48.918;9.438;2023-04-15T16:15:56;10.90;97.40
3705;DHT22;1868;48.918;9.438;2023-04-15T16:18:25;10.90;97.40
3705;DHT22;1868;48.918;9.438;2023-04-15T16:20:59;10.90;97.40
3705;DHT22;1868;48.918;9.438;2023-04-15T16:23:32;10.90;97.40
3705;DHT22;1868;48.918;9.438;2023-04-15T16:26:02;10.90;97.40
3705;DHT22;1868;48.918;9.438;2023-04-15T16:28:31;10.90;97.40
3705;DHT22;1868;48.918;9.438;2023-04-15T16:31:02;10.80;97.40
3705;DHT22;1868;48.918;9.438;2023-04-15T16:33:33;10.80;97.40
3705;DHT22;1868;48.918;9.438;2023-04-15T16:36:03;10.80;97.40
3705;DHT22;1868;48.918;9.438;2023-04-15T16:38:33;10.90;97.40